Terminal Aerodrome Forecast
Issued by NWS Bismarck, ND

Home | Current Version | Previous Version | Graphics & Text | Print | Product List | Glossary On
Versions: 1 2 3 4 5 6 7 8 9 10 11 12 13 14 15 16 17 18 19 20 21
000
FTUS43 KBIS 041120
TAFISN
TAF
KISN 041120Z 0412/0512 36013G18KT P6SM -SHRA VCTS FEW030 BKN100CB
     FM041500 02011KT P6SM VCSH BKN040
     FM041800 02010KT P6SM BKN045
     FM050300 03011KT P6SM VCSH BKN025 OVC040=

USA.gov is the U.S. government's official web portal to all federal, state and local government web resources and services.